Time;durP1;ratioP1;P1;durP2;ratioP2;P2;SDS_P1;SDS_P2;PMS_P1;PMS_P2;Temp;Humidity;BMP_temperature;BMP_pressure;BME280_temperature;BME280_humidity;BME280_pressure;Samples;Min_cycle;Max_cycle;Signal;HPM_P1;HPM_P2
2022/04/02 00:00:44;;;;;;;;;16.50;13.00;;;;;6.52;50.04;100938.31;5038117;28;45069;-72
2022/04/02 00:03:09;;;;;;;;;40.00;32.25;;;;;6.32;50.12;100905.53;5043061;28;45079;-72
2022/04/02 00:05:34;;;;;;;;;18.25;13.50;;;;;6.54;50.05;100939.28;5039200;28;45169;-73
2022/04/02 00:08:00;;;;;;;;;13.00;13.00;;;;;6.53;49.86;100943.66;5045447;28;45057;-73
2022/04/02 00:10:25;;;;;;;;;15.25;12.75;;;;;6.48;49.75;100939.00;5032056;28;45076;-73
2022/04/02 00:12:53;;;;;;;;;8.50;7.75;;;;;6.37;49.50;100927.88;5032300;28;45561;-72
2022/04/02 00:15:19;;;;;;;;;15.75;9.75;;;;;6.40;49.64;100931.63;5040621;28;45222;-72
2022/04/02 00:17:44;;;;;;;;;7.25;6.50;;;;;6.44;49.05;100933.56;5040086;28;44934;-72
2022/04/02 00:20:10;;;;;;;;;9.00;8.00;;;;;6.15;49.46;100887.09;5014951;28;45369;-72
2022/04/02 00:22:35;;;;;;;;;7.00;6.00;;;;;6.44;49.21;100943.28;5032600;28;45725;-72
2022/04/02 00:25:01;;;;;;;;;6.50;6.50;;;;;6.38;48.63;100927.94;5032428;28;45105;-73
2022/04/02 00:27:26;;;;;;;;;33.75;29.75;;;;;6.23;49.09;100916.63;5032830;28;45505;-73
2022/04/02 00:29:52;;;;;;;;;9.00;9.00;;;;;6.30;48.17;100915.19;5032797;28;45085;-72
2022/04/02 00:32:17;;;;;;;;;7.50;7.50;;;;;6.51;48.75;100934.75;5038953;28;46088;-73
2022/04/02 00:34:42;;;;;;;;;7.75;7.50;;;;;6.47;47.81;100946.06;5031776;28;45188;-73
2022/04/02 00:37:08;;;;;;;;;8.75;8.00;;;;;6.39;46.98;100940.41;5032760;28;45010;-73
2022/04/02 00:39:33;;;;;;;;;8.75;4.25;;;;;6.32;47.37;100956.88;5044829;28;45357;-72
2022/04/02 00:41:58;;;;;;;;;7.25;7.25;;;;;6.25;48.10;100933.53;5051763;28;45050;-72
2022/04/02 00:44:26;;;;;;;;;7.25;4.00;;;;;6.22;47.75;100922.78;5051700;28;44962;-73
2022/04/02 00:46:51;;;;;;;;;6.00;6.00;;;;;6.43;47.55;100947.69;5037912;28;45145;-72
2022/04/02 00:49:17;;;;;;;;;4.25;3.75;;;;;6.25;47.03;100901.69;5031739;28;45192;-72
2022/04/02 00:51:44;;;;;;;;;3.00;3.00;;;;;5.69;46.34;100793.03;5014908;28;47422;-73
2022/04/02 00:54:12;;;;;;;;;8.75;5.25;;;;;6.45;45.98;100939.75;5041857;28;45317;-73
2022/04/02 00:56:39;;;;;;;;;6.75;3.25;;;;;6.27;46.53;100921.28;5029665;28;45346;-73
2022/04/02 00:59:05;;;;;;;;;3.75;3.75;;;;;6.36;46.11;100940.25;5036155;28;45085;-73
2022/04/02 01:01:31;;;;;;;;;6.75;6.00;;;;;6.37;46.06;100935.84;5032001;28;45767;-72
2022/04/02 01:03:59;;;;;;;;;4.00;2.25;;;;;6.24;45.98;100908.75;5031542;28;44940;-73
2022/04/02 01:06:26;;;;;;;;;4.75;4.00;;;;;6.39;46.06;100937.75;5044195;28;45222;-72
2022/04/02 01:08:52;;;;;;;;;6.50;4.00;;;;;6.34;46.34;100928.66;5038444;28;45635;-72
2022/04/02 01:11:17;;;;;;;;;7.00;4.00;;;;;6.30;45.12;100932.00;5046056;28;45851;-72
2022/04/02 01:13:43;;;;;;;;;7.75;3.25;;;;;6.22;45.66;100929.00;5033587;28;45197;-72
2022/04/02 01:16:08;;;;;;;;;4.25;3.00;;;;;6.25;45.34;100929.16;5040902;28;45193;-72
2022/04/02 01:18:34;;;;;;;;;3.00;3.00;;;;;6.24;45.64;100927.31;5046462;28;45685;-71
2022/04/02 01:20:59;;;;;;;;;3.50;3.50;;;;;6.24;45.19;100921.13;5054619;28;45135;-72
2022/04/02 01:23:29;;;;;;;;;10.75;7.00;;;;;6.23;45.63;100930.81;5022805;28;45054;-72
2022/04/02 01:25:56;;;;;;;;;2.00;2.00;;;;;6.00;45.40;100908.50;5035318;28;45202;-72
2022/04/02 01:28:23;;;;;;;;;5.75;5.00;;;;;5.81;45.41;100876.63;5036127;28;45291;-72
2022/04/02 01:30:48;;;;;;;;;3.75;3.00;;;;;6.05;45.04;100928.19;5040256;28;45410;-72
2022/04/02 01:33:14;;;;;;;;;3.50;3.50;;;;;6.07;45.01;100946.84;5043517;28;45006;-72
2022/04/02 01:35:39;;;;;;;;;4.25;3.00;;;;;5.99;45.26;100935.88;5035236;28;45209;-72
2022/04/02 01:38:04;;;;;;;;;3.25;2.00;;;;;5.87;45.61;100920.25;5032482;28;44945;-72
2022/04/02 01:40:30;;;;;;;;;6.75;1.75;;;;;5.77;45.63;100899.41;5035098;28;45172;-73
2022/04/02 01:42:55;;;;;;;;;3.25;3.25;;;;;5.99;45.47;100930.56;5034401;28;45285;-72
2022/04/02 01:45:21;;;;;;;;;3.00;2.00;;;;;5.85;45.41;100935.16;5034797;28;45219;-72
2022/04/02 01:47:46;;;;;;;;;6.25;4.00;;;;;5.94;45.12;100957.66;5035724;28;44971;-73
2022/04/02 01:50:12;;;;;;;;;3.50;2.50;;;;;5.95;45.74;100948.88;5034858;28;45579;-72
2022/04/02 01:52:38;;;;;;;;;4.00;3.00;;;;;5.68;45.74;100907.84;5039120;28;45103;-73
2022/04/02 01:55:04;;;;;;;;;6.00;3.00;;;;;5.86;45.37;100949.34;5041680;28;45348;-72
2022/04/02 01:57:30;;;;;;;;;3.50;3.50;;;;;5.75;45.93;100929.34;5049775;28;45337;-72
2022/04/02 01:59:55;;;;;;;;;4.00;2.50;;;;;5.82;45.72;100955.31;5038105;28;45508;-72
2022/04/02 02:02:20;;;;;;;;;3.25;2.25;;;;;5.91;46.20;100958.44;5045154;28;45311;-73
2022/04/02 02:04:46;;;;;;;;;7.00;4.00;;;;;5.72;45.68;100924.81;5049429;28;45058;-73
2022/04/02 02:07:11;;;;;;;;;3.75;3.75;;;;;5.90;46.04;100967.22;5036813;28;45280;-72
2022/04/02 02:09:37;;;;;;;;;5.00;2.75;;;;;5.88;45.75;100976.84;5039186;28;45430;-72
2022/04/02 02:12:03;;;;;;;;;2.75;2.50;;;;;5.66;45.61;100943.03;5045686;28;45140;-72
2022/04/02 02:14:29;;;;;;;;;4.50;4.00;;;;;5.81;45.98;100969.44;5028501;28;45502;-72
2022/04/02 02:16:54;;;;;;;;;2.25;2.25;;;;;5.67;45.79;100961.69;5052952;28;44946;-72
2022/04/02 02:19:20;;;;;;;;;5.50;3.25;;;;;5.61;45.56;100948.16;5017207;28;46435;-71
2022/04/02 02:21:45;;;;;;;;;3.00;3.00;;;;;5.52;45.52;100958.28;5044906;28;45128;-71
2022/04/02 02:24:10;;;;;;;;;4.00;2.50;;;;;5.57;46.18;100972.66;5044472;28;45021;-72
2022/04/02 02:26:36;;;;;;;;;7.00;2.50;;;;;5.57;45.94;100967.38;5041059;28;45110;-72
2022/04/02 02:29:04;;;;;;;;;5.00;5.00;;;;;5.45;45.96;100949.13;5045693;28;45018;-72
2022/04/02 02:31:30;;;;;;;;;4.00;3.00;;;;;5.61;45.58;100969.34;5035791;28;45146;-72
2022/04/02 02:36:39;;;;;;;;;6.00;6.00;;;;;5.68;45.85;100971.47;5029316;28;44883;-71
2022/04/02 02:39:05;;;;;;;;;7.50;5.00;;;;;5.68;46.21;100982.06;5041506;28;46563;-72
2022/04/02 02:41:31;;;;;;;;;3.50;3.00;;;;;5.63;46.23;100969.44;5038341;28;45145;-72
2022/04/02 02:43:57;;;;;;;;;5.00;4.50;;;;;5.64;46.12;100982.75;5039103;28;45271;-71
2022/04/02 02:46:22;;;;;;;;;4.75;3.00;;;;;5.65;45.80;100975.72;5051832;28;45137;-72
2022/04/02 02:48:48;;;;;;;;;3.00;2.75;;;;;5.58;46.17;100973.59;5037405;28;45115;-72
2022/04/02 02:51:13;;;;;;;;;7.00;6.00;;;;;5.56;46.03;100977.88;5043362;28;44942;-73
2022/04/02 02:53:39;;;;;;;;;5.25;4.00;;;;;5.60;45.82;100980.78;5034580;28;44872;-73
2022/04/02 02:56:04;;;;;;;;;3.00;3.00;;;;;5.51;46.35;100982.94;5043286;28;45011;-73
2022/04/02 02:58:30;;;;;;;;;6.00;3.50;;;;;5.54;46.92;100989.34;5036229;28;45154;-73
2022/04/02 03:00:55;;;;;;;;;5.25;4.00;;;;;5.07;46.72;100902.16;5034547;28;45080;-74
2022/04/02 03:03:22;;;;;;;;;7.50;4.00;;;;;5.52;46.93;100995.38;5016657;28;45064;-73
2022/04/02 03:05:50;;;;;;;;;9.00;6.00;;;;;5.47;46.16;100981.88;5034013;28;45177;-74
2022/04/02 03:08:16;;;;;;;;;7.75;6.00;;;;;5.47;46.51;100976.59;5036266;28;45646;-74
2022/04/02 03:10:42;;;;;;;;;4.50;4.50;;;;;5.51;46.35;101005.09;5051326;28;44927;-75
2022/04/02 03:13:10;;;;;;;;;7.25;6.25;;;;;5.42;46.79;101004.59;5041048;28;45384;-73
2022/04/02 03:15:36;;;;;;;;;4.00;4.00;;;;;5.52;46.74;101008.63;5036319;28;45258;-74
2022/04/02 03:18:06;;;;;;;;;4.00;4.00;;;;;5.54;47.21;101007.88;5039244;28;45792;-73
2022/04/02 03:20:32;;;;;;;;;5.50;5.50;;;;;5.48;46.64;101012.88;5051407;28;45777;-74
2022/04/02 03:22:58;;;;;;;;;6.25;5.00;;;;;5.48;46.88;101015.53;5034322;28;44886;-73
2022/04/02 03:25:24;;;;;;;;;4.50;4.50;;;;;5.30;47.00;100989.00;5042932;28;45254;-74
2022/04/02 03:27:49;;;;;;;;;7.25;6.25;;;;;5.51;46.99;101010.38;5032028;28;45920;-74
2022/04/02 03:30:18;;;;;;;;;4.25;3.75;;;;;5.50;47.08;101012.94;5032846;28;45089;-74
2022/04/02 03:32:43;;;;;;;;;4.50;4.25;;;;;5.41;47.05;100988.63;5031538;28;45105;-74
2022/04/02 03:35:10;;;;;;;;;3.00;3.00;;;;;5.50;47.20;101003.25;5032333;28;45401;-73
2022/04/02 03:37:37;;;;;;;;;8.00;5.00;;;;;5.52;47.24;101011.28;5032227;28;45222;-74
2022/04/02 03:40:10;;;;;;;;;5.50;5.00;;;;;5.46;46.70;101010.97;5030709;28;45267;-74
2022/04/02 03:42:36;;;;;;;;;2.75;2.00;;;;;5.21;46.83;100980.56;5048225;28;45060;-73
2022/04/02 03:45:02;;;;;;;;;5.00;5.00;;;;;5.33;47.82;101002.41;5051296;28;45051;-73
2022/04/02 03:47:27;;;;;;;;;25.75;21.50;;;;;5.45;47.75;101019.75;5034125;28;48284;-71
2022/04/02 03:49:52;;;;;;;;;8.00;6.75;;;;;5.21;47.47;100974.34;5050555;28;45366;-73
2022/04/02 03:52:18;;;;;;;;;5.00;4.50;;;;;5.17;47.04;100978.59;5047598;28;45040;-73
2022/04/02 03:54:44;;;;;;;;;5.75;4.25;;;;;5.32;46.98;101013.81;5048527;28;45209;-73
2022/04/02 03:57:11;;;;;;;;;7.25;7.00;;;;;5.25;47.57;101021.38;5036250;28;45942;-73
2022/04/02 03:59:37;;;;;;;;;4.00;4.00;;;;;5.15;47.70;101005.00;5033653;28;45302;-73
2022/04/02 04:02:04;;;;;;;;;4.25;4.25;;;;;5.28;48.00;101018.88;5039925;28;45033;-73
2022/04/02 04:04:31;;;;;;;;;4.00;4.00;;;;;5.11;48.28;101007.41;5041595;28;45458;-73
2022/04/02 04:06:56;;;;;;;;;6.75;5.75;;;;;5.06;48.13;101008.91;5026968;28;45950;-73
2022/04/02 04:09:22;;;;;;;;;5.50;4.50;;;;;5.05;47.93;100992.13;5027298;28;46200;-73
2022/04/02 04:11:47;;;;;;;;;4.00;3.00;;;;;5.22;48.03;101022.13;5023357;28;45769;-73
2022/04/02 04:14:14;;;;;;;;;3.50;3.50;;;;;4.98;47.98;100979.34;5037448;28;45530;-73
2022/04/02 04:16:41;;;;;;;;;7.50;4.25;;;;;5.01;48.15;101013.03;5028571;28;46811;-73
2022/04/02 04:19:06;;;;;;;;;6.25;5.75;;;;;5.13;47.80;101030.50;5032318;28;44952;-73
2022/04/02 04:21:31;;;;;;;;;7.25;4.00;;;;;4.97;48.43;101007.59;5033426;28;45170;-73
2022/04/02 04:23:57;;;;;;;;;5.50;5.50;;;;;4.98;48.38;101033.25;5033347;28;44879;-73
2022/04/02 04:26:22;;;;;;;;;7.00;5.00;;;;;5.01;48.70;101035.13;5024166;28;45563;-73
2022/04/02 04:28:47;;;;;;;;;7.25;6.00;;;;;5.03;48.57;101036.13;5018964;28;45477;-73
2022/04/02 04:31:17;;;;;;;;;10.50;6.00;;;;;4.63;48.50;100961.63;5035459;28;45499;-73
2022/04/02 04:33:46;;;;;;;;;7.00;5.00;;;;;5.14;48.56;101053.50;5029333;28;45622;-73
2022/04/02 04:36:12;;;;;;;;;7.00;6.50;;;;;5.04;48.30;101058.22;5026061;28;45694;-73
2022/04/02 04:38:37;;;;;;;;;7.00;6.25;;;;;4.92;48.27;101056.75;5027570;28;45528;-73
2022/04/02 04:41:03;;;;;;;;;9.00;5.75;;;;;5.00;49.00;101062.47;5026832;28;45008;-71
2022/04/02 04:43:30;;;;;;;;;7.50;6.25;;;;;5.01;48.72;101051.00;5028013;28;45049;-72
2022/04/02 04:45:55;;;;;;;;;4.25;4.00;;;;;4.95;48.97;101040.09;5026588;28;45438;-73
2022/04/02 04:48:21;;;;;;;;;5.00;4.50;;;;;5.14;48.10;101065.84;5022901;28;45362;-72
2022/04/02 04:50:47;;;;;;;;;5.50;3.00;;;;;5.13;48.47;101064.00;5035071;28;45277;-72
2022/04/02 04:53:13;;;;;;;;;8.75;6.00;;;;;4.93;48.62;101037.38;5045682;28;45308;-73
2022/04/02 04:55:39;;;;;;;;;7.00;7.00;;;;;4.57;48.45;100960.47;5042161;28;45584;-72
2022/04/02 04:58:04;;;;;;;;;5.50;4.50;;;;;5.13;48.06;101075.53;5024977;28;45400;-73
2022/04/02 05:00:29;;;;;;;;;3.75;3.75;;;;;5.13;48.41;101080.81;5033842;28;45625;-73
2022/04/02 05:02:55;;;;;;;;;5.75;5.75;;;;;5.06;48.00;101056.56;5034493;28;45451;-73
2022/04/02 05:05:21;;;;;;;;;5.75;4.00;;;;;4.77;48.13;101013.56;5015949;28;45386;-73
2022/04/02 05:07:46;;;;;;;;;8.00;6.25;;;;;5.15;47.88;101084.44;5016150;28;45320;-74
2022/04/02 05:10:12;;;;;;;;;5.25;5.25;;;;;5.16;48.47;101099.53;5027813;28;45385;-73
2022/04/02 05:12:38;;;;;;;;;7.00;5.00;;;;;5.01;48.22;101074.84;5042226;28;45269;-72
2022/04/02 05:15:10;;;;;;;;;4.25;3.00;;;;;5.18;48.21;101089.03;5018788;28;45519;-73
2022/04/02 05:17:38;;;;;;;;;6.75;6.00;;;;;4.86;47.61;101052.84;5027146;28;45330;-73
2022/04/02 05:20:06;;;;;;;;;10.75;7.25;;;;;4.98;48.56;101074.69;5033192;28;45343;-73
2022/04/02 05:22:32;;;;;;;;;7.25;5.50;;;;;5.12;48.08;101093.97;5027206;28;45509;-73
2022/04/02 05:24:57;;;;;;;;;8.00;7.25;;;;;4.97;48.16;101080.81;5050641;28;45171;-73
2022/04/02 05:27:24;;;;;;;;;5.75;2.25;;;;;4.80;47.97;101056.06;5050327;28;45232;-73
2022/04/02 05:29:51;;;;;;;;;5.50;5.50;;;;;4.96;47.88;101076.34;5030134;28;45435;-72
2022/04/02 05:32:16;;;;;;;;;8.00;6.00;;;;;5.11;48.55;101103.63;5043429;28;45407;-73
2022/04/02 05:34:42;;;;;;;;;4.50;3.50;;;;;5.13;48.67;101109.03;5036101;28;45966;-72
2022/04/02 05:37:08;;;;;;;;;6.50;5.75;;;;;5.09;48.63;101094.72;5024241;28;45741;-72
2022/04/02 05:39:33;;;;;;;;;7.50;6.75;;;;;4.62;48.39;101021.59;4998975;28;45420;-73
2022/04/02 05:41:59;;;;;;;;;6.50;6.50;;;;;5.20;47.84;101124.44;5014846;28;45478;-73
2022/04/02 05:44:24;;;;;;;;;6.00;4.25;;;;;5.16;47.83;101112.78;5027770;28;45925;-72
2022/04/02 05:46:49;;;;;;;;;7.00;4.25;;;;;5.14;48.17;101114.41;5035389;28;45458;-73
2022/04/02 05:49:15;;;;;;;;;8.75;6.00;;;;;5.04;48.38;101103.25;5025731;28;45360;-73
2022/04/02 05:51:41;;;;;;;;;7.50;5.00;;;;;4.43;49.25;100988.81;5018806;28;45390;-69
2022/04/02 05:54:06;;;;;;;;;3.00;3.00;;;;;5.18;48.98;101112.84;5030703;28;47324;-72
2022/04/02 05:56:34;;;;;;;;;6.75;6.75;;;;;5.29;48.30;101119.63;5047146;28;45482;-72
2022/04/02 05:59:01;;;;;;;;;7.00;4.25;;;;;5.25;47.81;101125.59;5020936;28;45627;-72
2022/04/02 06:01:27;;;;;;;;;10.50;6.50;;;;;5.06;47.87;101117.47;5052892;28;45590;-72
2022/04/02 06:03:52;;;;;;;;;9.75;7.75;;;;;5.21;48.43;101139.47;5054097;28;45588;-73
2022/04/02 06:06:18;;;;;;;;;7.50;7.25;;;;;5.24;48.48;101139.66;5051001;28;45252;-72
2022/04/02 06:08:43;;;;;;;;;5.75;5.75;;;;;4.79;47.67;101056.91;5042976;28;45514;-72
2022/04/02 06:11:09;;;;;;;;;5.50;4.25;;;;;5.07;48.10;101100.78;5039017;28;45517;-72
2022/04/02 06:13:34;;;;;;;;;8.00;7.25;;;;;5.31;48.45;101140.91;5048336;28;46940;-74
2022/04/02 06:15:59;;;;;;;;;9.25;8.00;;;;;5.29;48.17;101150.50;5029343;28;45146;-74
2022/04/02 06:18:25;;;;;;;;;11.00;8.00;;;;;5.21;48.28;101130.63;5024147;28;45336;-74
2022/04/02 06:20:50;;;;;;;;;7.25;5.75;;;;;5.23;48.31;101131.63;5035567;28;45271;-74
2022/04/02 06:23:19;;;;;;;;;6.50;5.00;;;;;5.18;48.20;101123.47;5028554;28;46117;-74
2022/04/02 06:25:44;;;;;;;;;6.00;6.00;;;;;4.88;48.52;101075.91;5016381;28;45419;-75
2022/04/02 06:28:10;;;;;;;;;6.50;6.50;;;;;5.27;47.94;101168.06;5038084;28;45305;-74
2022/04/02 06:30:36;;;;;;;;;5.50;5.50;;;;;5.25;48.32;101161.78;5033619;28;45001;-75
2022/04/02 06:33:02;;;;;;;;;4.50;3.50;;;;;5.29;48.73;101161.09;5043189;28;45358;-75
2022/04/02 06:35:28;;;;;;;;;5.50;5.50;;;;;5.17;48.88;101132.22;5035732;28;45155;-74
2022/04/02 06:37:55;;;;;;;;;8.75;6.75;;;;;5.41;48.76;101164.44;5029067;28;45493;-73
2022/04/02 06:40:23;;;;;;;;;7.25;4.00;;;;;5.46;48.60;101178.84;5022988;28;45661;-75
2022/04/02 06:42:49;;;;;;;;;10.50;6.50;;;;;5.33;48.09;101147.22;5018042;28;46114;-74
2022/04/02 06:45:15;;;;;;;;;4.00;4.00;;;;;5.08;48.10;101115.81;5010456;28;45410;-74
2022/04/02 06:47:41;;;;;;;;;8.50;7.50;;;;;5.19;48.32;101119.97;5034669;28;45771;-75
2022/04/02 06:50:09;;;;;;;;;8.00;7.50;;;;;5.51;49.10;101180.00;5036658;28;45506;-75
2022/04/02 06:52:36;;;;;;;;;7.50;5.75;;;;;5.52;48.66;101181.78;5024055;28;47493;-75
2022/04/02 06:55:02;;;;;;;;;3.25;2.75;;;;;5.50;49.29;101188.75;5020444;28;46490;-75
2022/04/02 06:57:28;;;;;;;;;11.25;9.00;;;;;5.19;48.40;101117.31;5012806;28;45759;-75
2022/04/02 06:59:54;;;;;;;;;12.00;10.00;;;;;5.29;48.16;101132.84;5015131;28;45388;-75
2022/04/02 07:02:22;;;;;;;;;3.50;3.50;;;;;5.63;48.04;101189.44;4997170;28;46339;-74
2022/04/02 07:04:48;;;;;;;;;6.00;3.25;;;;;5.54;48.36;101168.63;5014266;28;45512;-74
2022/04/02 07:07:14;;;;;;;;;7.00;5.50;;;;;5.39;48.10;101136.00;5011710;28;45695;-74
2022/04/02 07:09:40;;;;;;;;;6.00;5.75;;;;;4.06;47.86;100896.88;5010191;28;45539;-75
2022/04/02 07:12:07;;;;;;;;;6.25;3.50;;;;;4.50;47.77;100971.53;5019452;28;45549;-74
2022/04/02 07:14:33;;;;;;;;;4.25;4.25;;;;;4.66;47.34;101009.44;5002469;28;45324;-75
2022/04/02 07:16:59;;;;;;;;;11.75;10.25;;;;;5.01;47.83;101072.19;5016070;28;45415;-74
2022/04/02 07:19:25;;;;;;;;;5.50;5.50;;;;;4.78;46.84;101044.47;5016408;28;45468;-74
2022/04/02 07:21:54;;;;;;;;;3.50;3.50;;;;;5.96;47.02;101206.25;4998026;28;47105;-74
2022/04/02 07:24:21;;;;;;;;;4.50;4.50;;;;;4.49;46.54;100972.38;5028004;28;45486;-75
2022/04/02 07:26:48;;;;;;;;;6.00;3.00;;;;;5.65;46.84;101187.75;4998119;28;45439;-75
2022/04/02 07:29:15;;;;;;;;;9.75;6.50;;;;;5.57;46.59;101166.13;5016158;28;45582;-75
2022/04/02 07:31:44;;;;;;;;;11.00;7.50;;;;;4.88;46.55;101044.16;5017412;28;46407;-75
2022/04/02 07:34:09;;;;;;;;;9.00;3.25;;;;;5.94;47.41;101217.53;5034466;28;45403;-75
2022/04/02 07:37:08;;;;;;;;;7.75;5.00;;;;;6.04;46.48;101214.59;5034846;28;45426;-75
2022/04/02 07:39:48;;;;;;;;;10.50;7.25;;;;;4.92;47.05;101022.31;5031631;28;45388;-75
2022/04/02 07:42:26;;;;;;;;;2.00;2.00;;;;;5.93;46.06;101200.72;5034430;28;45539;-74
2022/04/02 07:45:08;;;;;;;;;3.00;2.50;;;;;6.22;46.30;101225.22;5021358;28;45571;-75
2022/04/02 07:47:36;;;;;;;;;6.25;5.00;;;;;5.89;45.77;101162.53;5017917;28;45465;-75
2022/04/02 07:50:09;;;;;;;;;8.00;4.00;;;;;5.39;45.71;101060.06;5030731;28;45722;-75
2022/04/02 07:52:39;;;;;;;;;9.25;6.00;;;;;5.45;45.76;101071.00;5034145;28;45575;-76
2022/04/02 07:55:08;;;;;;;;;4.25;4.25;;;;;6.17;45.17;101186.94;5034251;28;45666;-76
2022/04/02 07:57:37;;;;;;;;;12.25;10.25;;;;;5.14;45.33;101034.03;5034485;28;45462;-76
2022/04/02 08:00:04;;;;;;;;;6.25;6.00;;;;;5.53;45.23;101064.38;5016876;28;45515;-75
2022/04/02 08:02:37;;;;;;;;;10.25;7.25;;;;;5.66;45.21;101107.38;5017678;28;46275;-75
2022/04/02 08:05:04;;;;;;;;;6.00;6.00;;;;;5.67;45.06;101111.88;5025513;28;45491;-74
2022/04/02 08:07:30;;;;;;;;;8.00;7.50;;;;;6.34;45.47;101190.47;5021461;28;45395;-75
2022/04/02 08:09:57;;;;;;;;;8.50;7.00;;;;;5.96;45.34;101094.84;5016483;28;45595;-75
2022/04/02 08:12:24;;;;;;;;;8.25;7.25;;;;;6.82;44.90;101241.53;4997423;28;46619;-75
2022/04/02 08:14:53;;;;;;;;;7.00;6.50;;;;;5.99;44.54;101095.00;5014862;28;45722;-76
2022/04/02 08:17:21;;;;;;;;;16.75;13.25;;;;;6.13;44.76;101126.63;5024673;28;45497;-76
2022/04/02 08:19:49;;;;;;;;;7.00;7.00;;;;;6.00;43.77;101123.31;5029551;28;45431;-75
2022/04/02 08:22:16;;;;;;;;;5.25;4.00;;;;;6.01;43.50;101081.81;5032198;28;45806;-76
2022/04/02 08:24:42;;;;;;;;;7.75;3.75;;;;;5.81;43.13;101030.41;5039641;28;45063;-75
2022/04/02 08:27:18;;;;;;;;;12.75;8.75;;;;;7.20;43.29;101247.81;5034209;28;45282;-75
2022/04/02 08:29:56;;;;;;;;;3.00;3.00;;;;;7.26;41.87;101240.13;5034940;28;45383;-75
2022/04/02 08:32:31;;;;;;;;;6.75;3.75;;;;;7.27;41.43;101247.25;5030100;28;45637;-75
2022/04/02 08:35:08;;;;;;;;;3.50;3.50;;;;;6.85;40.83;101169.06;5029234;28;45280;-74
2022/04/02 08:37:37;;;;;;;;;2.00;2.00;;;;;7.36;40.74;101241.47;5030274;28;45285;-76
2022/04/02 08:40:36;;;;;;;;;3.50;3.50;;;;;7.50;40.70;101250.09;5034143;28;45372;-75
2022/04/02 08:43:07;;;;;;;;;3.25;3.25;;;;;7.65;38.98;101255.22;5032150;28;45467;-77
2022/04/02 08:45:34;;;;;;;;;7.75;5.00;;;;;6.35;39.47;101041.00;5032998;28;45450;-77
2022/04/02 08:48:20;;;;;;;;;2.25;2.25;;;;;7.82;39.74;101253.31;5021303;28;45276;-77
2022/04/02 08:51:11;;;;;;;;;5.00;4.75;;;;;7.71;38.98;101213.84;5008193;28;45452;-75
2022/04/02 08:53:50;;;;;;;;;4.00;4.00;;;;;7.54;38.69;101183.84;5014689;28;47302;-76
2022/04/02 08:56:28;;;;;;;;;4.00;4.00;;;;;8.05;38.18;101283.63;5034542;28;45345;-76
2022/04/02 08:59:24;;;;;;;;;5.75;4.00;;;;;7.16;39.14;101100.59;5016422;28;45502;-76
2022/04/02 09:02:11;;;;;;;;;4.25;3.00;;;;;8.15;39.40;101263.66;5011996;28;45660;-76
2022/04/02 09:05:06;;;;;;;;;3.00;3.00;;;;;8.23;38.68;101257.84;5023909;28;46371;-74
2022/04/02 09:08:01;;;;;;;;;10.00;8.00;;;;;8.37;37.99;101255.78;5015544;28;45624;-74
2022/04/02 09:11:02;;;;;;;;;15.25;12.75;;;;;8.47;37.90;101239.38;5023575;28;45362;-74
2022/04/02 09:13:48;;;;;;;;;5.00;5.00;;;;;8.75;37.70;101255.66;5009897;28;45875;-75
2022/04/02 09:16:25;;;;;;;;;6.25;4.25;;;;;9.01;37.78;101267.38;5028391;28;46439;-74
2022/04/02 09:19:00;;;;;;;;;11.00;9.75;;;;;9.71;35.64;101252.34;5028837;28;45454;-74
2022/04/02 09:21:47;;;;;;;;;10.25;8.25;;;;;10.39;34.92;101262.84;4999497;28;45454;-74
2022/04/02 09:24:43;;;;;;;;;20.75;15.50;;;;;10.90;33.57;101246.78;5032935;28;45691;-75
2022/04/02 09:27:27;;;;;;;;;5.00;5.00;;;;;11.21;32.72;101259.38;5032831;28;46563;-74
2022/04/02 09:30:22;;;;;;;;;7.50;7.50;;;;;12.08;31.80;101243.28;5035232;28;45547;-75
2022/04/02 09:32:51;;;;;;;;;6.50;6.50;;;;;12.56;28.60;101241.88;5011273;28;45553;-74
2022/04/02 09:35:40;;;;;;;;;13.25;8.00;;;;;12.44;29.56;101242.44;5019064;28;45277;-74
2022/04/02 09:38:22;;;;;;;;;15.00;11.25;;;;;12.35;30.49;101241.31;5019210;28;46298;-73
2022/04/02 09:40:51;;;;;;;;;5.00;4.00;;;;;12.05;30.88;101217.28;5030752;28;45474;-74
2022/04/02 09:43:25;;;;;;;;;9.00;8.00;;;;;11.33;30.03;101111.72;5037087;28;45564;-73
2022/04/02 09:46:29;;;;;;;;;10.00;7.00;;;;;10.34;28.71;101041.00;5026621;28;45880;-74
2022/04/02 09:49:00;;;;;;;;;4.50;4.00;;;;;11.12;29.03;101194.00;5022869;28;45560;-73
2022/04/02 09:51:34;;;;;;;;;6.75;4.00;;;;;11.42;30.04;101250.22;5030219;28;45472;-74
2022/04/02 09:54:12;;;;;;;;;3.50;3.50;;;;;10.85;29.71;101161.06;5036019;28;45241;-74
2022/04/02 09:56:50;;;;;;;;;11.25;9.50;;;;;10.98;29.65;101140.09;5035581;28;45481;-74
2022/04/02 09:59:45;;;;;;;;;8.00;8.00;;;;;11.10;30.18;101155.59;5012515;28;47179;-73
2022/04/02 10:02:38;;;;;;;;;6.50;4.50;;;;;11.05;29.68;101155.44;5013058;28;45592;-73
2022/04/02 10:05:07;;;;;;;;;8.75;7.25;;;;;11.02;30.04;101185.69;5001830;28;45411;-73
2022/04/02 10:07:57;;;;;;;;;8.75;7.50;;;;;11.21;29.47;101262.03;5017612;28;45524;-73
2022/04/02 10:10:26;;;;;;;;;7.00;6.00;;;;;10.06;30.51;101127.25;5035799;28;46423;-73
2022/04/02 10:12:54;;;;;;;;;11.25;8.00;;;;;10.31;30.57;101185.09;5035572;28;45459;-73
2022/04/02 10:15:20;;;;;;;;;6.00;5.75;;;;;9.45;30.48;101033.53;5035725;28;45556;-72
2022/04/02 10:17:51;;;;;;;;;7.25;7.00;;;;;9.59;30.61;101050.06;5030581;28;45394;-74
2022/04/02 10:20:20;;;;;;;;;9.25;9.00;;;;;10.91;30.50;101286.03;5016576;28;45594;-73
2022/04/02 10:22:53;;;;;;;;;6.50;6.50;;;;;10.99;29.95;101263.13;5018196;28;45434;-73
2022/04/02 10:25:27;;;;;;;;;6.50;5.50;;;;;9.70;29.86;101051.34;5021817;28;45597;-73
2022/04/02 10:27:54;;;;;;;;;6.75;5.00;;;;;10.64;29.14;101236.13;5021361;28;45404;-73
2022/04/02 10:30:20;;;;;;;;;12.50;8.50;;;;;10.88;29.73;101277.91;5016099;28;47067;-74
2022/04/02 10:32:51;;;;;;;;;6.50;6.50;;;;;10.85;29.45;101270.69;5009063;28;45751;-73
2022/04/02 10:35:19;;;;;;;;;5.75;5.00;;;;;10.80;29.45;101287.44;5017309;28;45528;-73
2022/04/02 10:37:58;;;;;;;;;6.00;6.00;;;;;10.80;29.75;101271.38;5020972;28;45543;-73
2022/04/02 10:40:28;;;;;;;;;7.25;7.25;;;;;10.73;29.65;101272.06;5020122;28;45416;-73
2022/04/02 10:43:02;;;;;;;;;10.25;7.00;;;;;10.47;28.89;101246.22;5018175;28;45453;-74
2022/04/02 10:45:29;;;;;;;;;8.25;6.75;;;;;10.49;29.27;101252.56;5028990;28;45376;-73
2022/04/02 10:48:11;;;;;;;;;7.50;6.00;;;;;10.62;29.53;101261.88;5026718;28;45590;-73
2022/04/02 10:50:38;;;;;;;;;9.75;6.00;;;;;10.70;29.48;101262.16;5027969;28;45718;-73
2022/04/02 10:53:04;;;;;;;;;7.50;5.50;;;;;10.21;29.17;101169.59;5028854;28;45566;-74
2022/04/02 10:55:30;;;;;;;;;5.25;2.75;;;;;10.63;28.85;101250.34;5005164;28;45535;-73
2022/04/02 10:57:59;;;;;;;;;5.75;4.25;;;;;10.66;29.47;101249.56;5025118;28;45030;-74
2022/04/02 11:00:27;;;;;;;;;6.50;6.50;;;;;10.69;29.02;101263.00;5016206;28;45989;-73
2022/04/02 11:03:05;;;;;;;;;3.50;3.50;;;;;10.19;27.99;101198.91;5024029;28;45574;-75
2022/04/02 11:05:39;;;;;;;;;4.25;4.25;;;;;9.15;28.82;101030.69;5008847;28;45466;-76
2022/04/02 11:08:10;;;;;;;;;8.00;5.50;;;;;10.42;29.10;101271.88;5035392;28;45287;-75
2022/04/02 11:10:35;;;;;;;;;7.00;5.00;;;;;10.49;28.81;101257.91;5023708;28;45495;-76
2022/04/02 11:13:04;;;;;;;;;2.00;2.00;;;;;9.92;28.65;101165.06;5036088;28;45618;-75
2022/04/02 11:15:36;;;;;;;;;5.25;5.00;;;;;10.51;28.65;101261.53;5038124;28;45620;-75
2022/04/02 11:18:02;;;;;;;;;4.75;4.75;;;;;10.07;28.66;101169.13;5026159;28;45439;-75
2022/04/02 11:20:32;;;;;;;;;4.00;4.00;;;;;10.36;28.35;101223.59;5030951;28;47543;-75
2022/04/02 11:23:04;;;;;;;;;5.50;4.00;;;;;10.56;29.12;101259.00;5008469;28;45659;-75
2022/04/02 11:25:31;;;;;;;;;7.75;5.00;;;;;10.59;29.35;101260.88;5019994;28;45355;-75
2022/04/02 11:28:11;;;;;;;;;6.00;5.00;;;;;10.48;28.24;101245.38;5029652;28;45456;-75
2022/04/02 11:30:45;;;;;;;;;4.50;4.50;;;;;10.32;28.86;101235.91;5030000;28;45880;-75
2022/04/02 11:33:19;;;;;;;;;7.75;6.25;;;;;10.10;28.84;101209.28;5029152;28;45596;-75
2022/04/02 11:35:51;;;;;;;;;6.75;4.00;;;;;10.21;29.19;101234.59;5023166;28;45607;-76
2022/04/02 11:38:27;;;;;;;;;2.25;2.25;;;;;10.47;28.57;101269.38;5006243;28;45583;-76
2022/04/02 11:41:22;;;;;;;;;3.75;3.25;;;;;10.60;27.97;101265.38;5012380;28;48439;-75
2022/04/02 11:43:51;;;;;;;;;5.50;4.00;;;;;10.28;27.58;101174.31;5022900;28;45498;-75